createdAt,value
2022-08-26T00:00:56.999Z,22.26
2022-08-26T00:02:59.462Z,22.23
2022-08-26T00:05:01.326Z,22.23
2022-08-26T00:07:03.293Z,22.23
2022-08-26T00:09:08.049Z,22.18
2022-08-26T00:11:10.533Z,22.17
2022-08-26T00:13:13.029Z,22.16
2022-08-26T00:15:19.097Z,22.16
2022-08-26T00:17:21.809Z,22.18
2022-08-26T00:19:23.708Z,22.16
2022-08-26T00:21:25.467Z,22.15
2022-08-26T00:23:28.928Z,22.17
2022-08-26T00:25:30.661Z,22.13
2022-08-26T00:27:35.575Z,22.12
2022-08-26T00:29:37.654Z,22.08
2022-08-26T00:31:40.050Z,22.04
2022-08-26T00:33:43.259Z,21.99
2022-08-26T00:35:47.585Z,21.89
2022-08-26T00:37:49.366Z,21.83
2022-08-26T00:39:51.402Z,21.77
2022-08-26T00:41:54.771Z,21.76
2022-08-26T00:43:56.570Z,21.74
2022-08-26T00:46:13.784Z,21.70
2022-08-26T00:48:18.610Z,21.68
2022-08-26T00:50:25.892Z,21.68
2022-08-26T00:52:30.196Z,21.69
2022-08-26T00:54:35.778Z,21.67
2022-08-26T00:56:43.912Z,21.64
2022-08-26T00:58:48.926Z,21.66
2022-08-26T01:00:51.556Z,21.67
2022-08-26T01:02:56.164Z,21.63
2022-08-26T01:05:00.835Z,21.66
2022-08-26T01:07:05.908Z,21.69
2022-08-26T01:09:07.985Z,21.67
2022-08-26T01:11:10.623Z,21.71
2022-08-26T01:13:12.845Z,21.71
2022-08-26T01:15:22.729Z,21.70
2022-08-26T01:17:24.473Z,21.67
2022-08-26T01:19:31.395Z,21.70
2022-08-26T01:21:43.406Z,21.69
2022-08-26T01:23:48.589Z,21.65
2022-08-26T01:25:55.384Z,21.63
2022-08-26T01:28:00.494Z,21.61
2022-08-26T01:30:03.085Z,21.58
2022-08-26T01:32:06.252Z,21.57
2022-08-26T01:34:18.590Z,21.58
2022-08-26T01:36:21.533Z,21.59
2022-08-26T01:38:23.717Z,21.55
2022-08-26T01:40:33.115Z,21.58
2022-08-26T01:42:35.130Z,21.60
2022-08-26T01:44:44.488Z,21.60
2022-08-26T01:46:47.610Z,21.59
2022-08-26T01:48:54.368Z,21.56
2022-08-26T01:50:57.500Z,21.56
2022-08-26T01:53:03.960Z,21.58
2022-08-26T01:55:06.691Z,21.62
2022-08-26T01:57:09.025Z,21.64
2022-08-26T01:59:14.640Z,21.65
2022-08-26T02:01:18.121Z,21.65
2022-08-26T02:03:22.349Z,21.58
2022-08-26T02:05:24.331Z,21.48
2022-08-26T02:07:27.039Z,21.34
2022-08-26T02:09:28.976Z,21.30
2022-08-26T02:11:33.790Z,21.30
2022-08-26T02:13:42.795Z,21.35
2022-08-26T02:15:44.678Z,21.39
2022-08-26T02:17:48.010Z,21.42
2022-08-26T02:19:54.887Z,21.45
2022-08-26T02:21:59.877Z,21.45
2022-08-26T02:24:13.807Z,21.44
2022-08-26T02:26:19.805Z,21.46
2022-08-26T02:28:21.784Z,21.45
2022-08-26T02:30:32.310Z,21.46
2022-08-26T02:32:34.053Z,21.45
2022-08-26T02:34:37.402Z,21.43
2022-08-26T02:36:40.285Z,21.43
2022-08-26T02:38:43.089Z,21.26
2022-08-26T02:40:44.989Z,21.17
2022-08-26T02:42:46.874Z,21.14
2022-08-26T02:44:49.502Z,21.19
2022-08-26T02:46:52.360Z,21.18
2022-08-26T02:48:55.967Z,21.17
2022-08-26T02:51:01.918Z,21.20
2022-08-26T02:53:04.667Z,21.24
2022-08-26T02:55:08.457Z,21.24
2022-08-26T02:57:11.305Z,21.26
2022-08-26T02:59:13.548Z,21.25
2022-08-26T03:01:30.613Z,21.10
2022-08-26T03:03:33.193Z,20.64
2022-08-26T03:05:35.312Z,20.11
2022-08-26T03:07:37.847Z,19.87
2022-08-26T03:09:39.716Z,19.97
2022-08-26T03:11:42.274Z,20.16
2022-08-26T03:13:45.466Z,20.33
2022-08-26T03:15:47.699Z,20.44
2022-08-26T03:17:50.390Z,20.54
2022-08-26T03:19:57.095Z,20.61
2022-08-26T03:21:59.402Z,20.70
2022-08-26T03:24:01.377Z,20.75
2022-08-26T03:26:03.498Z,20.81
2022-08-26T03:28:05.140Z,20.84
2022-08-26T03:30:29.708Z,20.87
2022-08-26T03:32:31.519Z,20.94
2022-08-26T03:34:33.587Z,20.99
2022-08-26T03:36:35.352Z,21.03
2022-08-26T03:38:37.245Z,21.10
2022-08-26T03:40:39.891Z,21.13
2022-08-26T03:42:44.504Z,21.13
2022-08-26T03:44:47.248Z,21.12
2022-08-26T03:46:49.818Z,21.14
2022-08-26T03:48:52.167Z,21.15
2022-08-26T03:50:53.952Z,21.15
2022-08-26T03:52:56.761Z,21.10
2022-08-26T03:54:58.611Z,20.94
2022-08-26T03:57:00.458Z,20.79
2022-08-26T03:59:02.700Z,20.81
2022-08-26T04:01:04.755Z,20.88
2022-08-26T04:03:06.736Z,20.97
2022-08-26T04:05:17.617Z,21.04
2022-08-26T04:07:19.791Z,21.09
2022-08-26T04:09:21.625Z,21.13
2022-08-26T04:11:30.695Z,21.17
2022-08-26T04:13:36.214Z,21.21
2022-08-26T04:15:39.395Z,21.22
2022-08-26T04:17:41.413Z,21.24
2022-08-26T04:19:43.332Z,21.27
2022-08-26T04:21:46.598Z,21.30
2022-08-26T04:23:49.566Z,21.33
2022-08-26T04:25:51.603Z,21.37
2022-08-26T04:27:53.563Z,21.38
2022-08-26T04:29:55.492Z,21.38
2022-08-26T04:31:57.496Z,21.42
2022-08-26T04:33:59.403Z,21.44
2022-08-26T04:36:02.601Z,21.47
2022-08-26T04:38:05.824Z,21.47
2022-08-26T04:40:10.253Z,21.48
2022-08-26T04:42:13.458Z,21.52
2022-08-26T04:44:16.667Z,21.53
2022-08-26T04:46:24.980Z,21.50
2022-08-26T04:48:29.052Z,21.51
2022-08-26T04:50:31.073Z,21.53
2022-08-26T04:52:34.042Z,21.55
2022-08-26T04:54:35.730Z,21.57
2022-08-26T04:56:41.592Z,21.63
2022-08-26T04:58:45.076Z,21.70
2022-08-26T05:00:51.261Z,21.75
2022-08-26T05:02:53.248Z,21.79
2022-08-26T05:04:55.038Z,21.79
2022-08-26T05:07:02.370Z,21.81
2022-08-26T05:09:05.213Z,21.86
2022-08-26T05:11:09.445Z,21.81
2022-08-26T05:13:14.301Z,21.82
2022-08-26T05:15:17.598Z,21.81
2022-08-26T05:17:19.552Z,21.82
2022-08-26T05:19:21.313Z,21.86
2022-08-26T05:21:25.546Z,21.93
2022-08-26T05:23:32.101Z,21.97
2022-08-26T05:25:38.934Z,22.03
2022-08-26T05:27:41.530Z,22.09
2022-08-26T05:29:43.358Z,22.15
2022-08-26T05:31:46.117Z,22.18
2022-08-26T05:33:47.982Z,22.20
2022-08-26T05:35:49.927Z,22.26
2022-08-26T05:37:51.711Z,22.27
2022-08-26T05:39:54.118Z,22.30
2022-08-26T05:41:55.991Z,22.35
2022-08-26T05:44:00.076Z,22.33
2022-08-26T05:46:07.150Z,22.35
2022-08-26T05:48:09.554Z,22.40
2022-08-26T05:50:12.031Z,22.46
2022-08-26T05:52:13.807Z,22.53
2022-08-26T05:54:21.845Z,22.57
2022-08-26T05:56:26.309Z,22.60
2022-08-26T05:58:28.413Z,22.63
2022-08-26T06:00:30.165Z,22.66
2022-08-26T06:02:32.108Z,22.70
2022-08-26T06:04:34.628Z,22.73
2022-08-26T06:06:42.715Z,22.76
2022-08-26T06:08:46.084Z,22.78
2022-08-26T06:10:49.558Z,22.81
2022-08-26T06:12:52.633Z,22.81
2022-08-26T06:14:55.285Z,22.82
2022-08-26T06:16:57.474Z,22.82
2022-08-26T06:19:03.160Z,22.88
2022-08-26T06:21:25.931Z,22.92
2022-08-26T06:23:49.575Z,23.06
2022-08-26T06:25:52.698Z,23.19
2022-08-26T06:27:54.727Z,23.25
2022-08-26T06:29:56.574Z,23.31
2022-08-26T06:31:58.595Z,23.44
2022-08-26T06:34:00.877Z,23.56
2022-08-26T06:36:04.067Z,23.61
2022-08-26T06:38:06.777Z,23.76
2022-08-26T06:40:12.177Z,23.85
2022-08-26T06:42:14.212Z,23.85
2022-08-26T06:44:16.137Z,23.90
2022-08-26T06:46:19.674Z,23.91
2022-08-26T06:48:21.895Z,23.95
2022-08-26T06:50:23.957Z,24.00
2022-08-26T06:52:26.691Z,24.00
2022-08-26T06:54:31.839Z,24.07
2022-08-26T06:56:39.017Z,24.12
2022-08-26T06:58:41.437Z,24.20
2022-08-26T07:00:47.329Z,24.09
2022-08-26T07:02:49.703Z,24.15
2022-08-26T07:04:51.670Z,24.22
2022-08-26T07:06:56.722Z,24.33
2022-08-26T07:09:05.279Z,24.47
2022-08-26T07:11:08.786Z,24.53
2022-08-26T07:13:11.308Z,24.55
2022-08-26T07:15:14.249Z,24.51
2022-08-26T07:17:17.003Z,24.52
2022-08-26T07:19:30.120Z,24.55
2022-08-26T07:21:33.401Z,24.59
2022-08-26T07:23:35.723Z,24.49
2022-08-26T07:25:41.986Z,24.42
2022-08-26T07:27:44.270Z,24.11
2022-08-26T07:29:46.116Z,24.08
2022-08-26T07:31:48.116Z,24.16
2022-08-26T07:33:50.897Z,24.25
2022-08-26T07:35:53.013Z,24.41
2022-08-26T07:37:57.095Z,24.45
2022-08-26T07:39:59.238Z,24.49
2022-08-26T07:42:07.538Z,24.66
2022-08-26T07:44:10.501Z,24.72
2022-08-26T07:46:20.873Z,24.80
2022-08-26T07:48:29.432Z,24.89
2022-08-26T07:50:49.243Z,24.96
2022-08-26T07:52:52.419Z,24.93
2022-08-26T07:55:00.388Z,24.99
2022-08-26T07:57:02.316Z,25.01
2022-08-26T07:59:13.754Z,25.01
2022-08-26T08:01:17.065Z,24.99
2022-08-26T08:03:20.648Z,24.96
2022-08-26T08:05:23.445Z,24.97
2022-08-26T08:07:44.940Z,25.01
2022-08-26T08:09:49.724Z,25.08
2022-08-26T08:11:51.940Z,25.16
2022-08-26T08:13:56.253Z,25.23
2022-08-26T08:15:58.528Z,25.31
2022-08-26T08:18:01.286Z,25.33
2022-08-26T08:20:05.133Z,25.38
2022-08-26T08:22:17.972Z,25.38
2022-08-26T08:24:22.178Z,25.44
2022-08-26T08:26:25.531Z,25.50
2022-08-26T08:28:28.194Z,25.51
2022-08-26T08:30:30.472Z,25.51
2022-08-26T08:32:32.313Z,25.52
2022-08-26T08:34:34.369Z,25.55
2022-08-26T08:36:36.682Z,25.65
2022-08-26T08:38:38.798Z,25.69
2022-08-26T08:40:41.683Z,25.79
2022-08-26T08:42:54.984Z,25.73
2022-08-26T08:44:59.790Z,25.61
2022-08-26T08:47:06.495Z,25.43
2022-08-26T08:49:09.267Z,25.32
2022-08-26T08:51:48.258Z,25.19
2022-08-26T08:53:54.799Z,25.14
2022-08-26T08:56:20.839Z,25.21
2022-08-26T08:58:52.412Z,25.23
2022-08-26T09:01:35.623Z,25.46
2022-08-26T09:03:51.365Z,25.57
2022-08-26T09:05:53.617Z,25.57
2022-08-26T09:08:04.650Z,25.62
2022-08-26T09:10:31.452Z,25.84
2022-08-26T09:12:34.568Z,26.01
2022-08-26T09:14:36.383Z,26.26
2022-08-26T09:16:51.421Z,26.49
2022-08-26T09:19:15.525Z,26.70
2022-08-26T09:21:25.469Z,26.90
2022-08-26T09:23:27.541Z,27.07
2022-08-26T09:25:29.540Z,27.16
2022-08-26T09:27:42.410Z,27.25
2022-08-26T09:29:45.646Z,27.37
2022-08-26T09:31:54.062Z,27.47
2022-08-26T09:34:21.499Z,27.25
2022-08-26T09:36:41.129Z,26.87
2022-08-26T09:38:44.090Z,27.01
2022-08-26T09:41:00.527Z,26.55
2022-08-26T09:43:13.538Z,26.49
2022-08-26T09:45:15.814Z,26.64
2022-08-26T09:47:21.452Z,26.59
2022-08-26T09:49:25.838Z,26.64
2022-08-26T09:51:32.157Z,26.40
2022-08-26T09:53:37.640Z,26.39
2022-08-26T09:55:42.131Z,26.46
2022-08-26T09:57:52.691Z,26.55
2022-08-26T09:59:54.666Z,26.62
2022-08-26T10:02:33.584Z,26.63
2022-08-26T10:04:36.062Z,26.32
2022-08-26T10:07:02.486Z,26.42
2022-08-26T10:09:08.838Z,26.70
2022-08-26T10:11:28.356Z,27.01
2022-08-26T10:14:05.461Z,27.36
2022-08-26T10:16:30.894Z,27.68
2022-08-26T10:18:37.447Z,27.85
2022-08-26T10:20:49.600Z,27.79
2022-08-26T10:23:05.980Z,28.06
2022-08-26T10:25:14.045Z,28.31
2022-08-26T10:27:27.679Z,28.53
2022-08-26T10:29:39.340Z,28.35
2022-08-26T10:31:52.000Z,28.38
2022-08-26T10:33:58.655Z,28.52
2022-08-26T10:36:07.110Z,28.63
2022-08-26T10:38:22.894Z,28.65
2022-08-26T10:40:27.301Z,28.54
2022-08-26T10:42:41.218Z,28.71
2022-08-26T10:44:44.532Z,28.74
2022-08-26T10:46:52.739Z,28.65
2022-08-26T10:49:11.730Z,28.44
2022-08-26T10:51:16.820Z,27.97
2022-08-26T10:53:38.333Z,27.77
2022-08-26T10:56:18.562Z,27.80
2022-08-26T10:58:41.533Z,28.26
2022-08-26T11:01:10.430Z,28.32
2022-08-26T11:03:30.024Z,28.27
2022-08-26T11:05:31.979Z,28.10
2022-08-26T11:07:44.369Z,28.42
2022-08-26T11:09:47.636Z,28.59
2022-08-26T11:11:51.591Z,28.20
2022-08-26T11:14:04.801Z,27.71
2022-08-26T11:16:08.439Z,27.58
2022-08-26T11:18:12.701Z,27.62
2022-08-26T11:20:41.553Z,27.53
2022-08-26T11:22:48.057Z,27.39
2022-08-26T11:24:53.036Z,27.37
2022-08-26T11:26:56.704Z,27.53
2022-08-26T11:28:58.756Z,27.47
2022-08-26T11:33:47.441Z,27.42
2022-08-26T11:35:52.280Z,27.80
2022-08-26T11:37:57.474Z,27.72
2022-08-26T11:40:01.495Z,27.92
2022-08-26T11:42:27.904Z,27.85
2022-08-26T11:44:38.378Z,28.11
2022-08-26T11:46:40.249Z,28.44
2022-08-26T11:48:43.888Z,28.69
2022-08-26T11:50:55.620Z,28.71
2022-08-26T11:53:07.585Z,28.88
2022-08-26T11:55:14.690Z,28.73
2022-08-26T11:57:16.458Z,28.84
2022-08-26T11:59:24.468Z,28.68
2022-08-26T12:01:31.469Z,28.43
2022-08-26T12:03:49.425Z,28.57
2022-08-26T12:05:52.687Z,28.34
2022-08-26T12:07:55.979Z,28.37
2022-08-26T12:10:02.221Z,28.49
2022-08-26T12:12:14.569Z,28.62
2022-08-26T12:14:23.139Z,28.54
2022-08-26T12:16:28.110Z,28.31
2022-08-26T12:18:39.005Z,28.25
2022-08-26T12:20:48.724Z,28.05
2022-08-26T12:22:50.705Z,28.30
2022-08-26T12:24:58.527Z,28.21
2022-08-26T12:27:21.065Z,28.18
2022-08-26T12:29:27.117Z,28.38
2022-08-26T12:31:33.656Z,28.29
2022-08-26T12:33:36.783Z,28.48
2022-08-26T12:35:41.042Z,28.36
2022-08-26T12:37:46.896Z,28.36
2022-08-26T12:39:49.370Z,28.40
2022-08-26T12:41:57.509Z,28.34
2022-08-26T12:43:59.618Z,28.46
2022-08-26T12:46:01.647Z,28.49
2022-08-26T12:48:13.595Z,28.71
2022-08-26T12:50:26.840Z,28.87
2022-08-26T12:52:30.734Z,28.98
2022-08-26T12:54:56.138Z,28.70
2022-08-26T12:57:09.950Z,28.89
2022-08-26T12:59:26.486Z,28.89
2022-08-26T13:01:38.080Z,28.64
2022-08-26T13:03:46.380Z,28.62
2022-08-26T13:05:48.437Z,28.83
2022-08-26T13:08:09.506Z,28.83
2022-08-26T13:10:35.233Z,28.99
2022-08-26T13:12:37.432Z,29.03
2022-08-26T13:14:40.535Z,29.04
2022-08-26T13:16:42.884Z,28.78
2022-08-26T13:18:44.741Z,28.71
2022-08-26T13:20:46.995Z,28.91
2022-08-26T13:22:51.945Z,29.02
2022-08-26T13:25:01.240Z,28.82
2022-08-26T13:27:04.603Z,28.92
2022-08-26T13:29:10.151Z,29.05
2022-08-26T13:31:13.822Z,29.16
2022-08-26T13:33:16.788Z,29.32
2022-08-26T13:35:20.269Z,29.31
2022-08-26T13:37:35.055Z,29.36
2022-08-26T13:39:38.221Z,29.32
2022-08-26T13:41:40.138Z,29.43
2022-08-26T13:43:42.315Z,29.41
2022-08-26T13:45:45.161Z,29.33
2022-08-26T13:47:47.944Z,29.39
2022-08-26T13:49:50.391Z,29.38
2022-08-26T13:51:52.234Z,29.48
2022-08-26T13:53:54.446Z,29.58
2022-08-26T13:55:59.899Z,29.73
2022-08-26T13:58:01.818Z,29.79
2022-08-26T14:00:05.191Z,29.81
2022-08-26T14:02:08.053Z,29.82
2022-08-26T14:04:12.285Z,29.74
2022-08-26T14:06:14.596Z,29.49
2022-08-26T14:08:16.540Z,29.49
2022-08-26T14:10:18.422Z,29.42
2022-08-26T14:12:20.761Z,29.14
2022-08-26T14:14:22.653Z,29.06
2022-08-26T14:16:33.530Z,29.09
2022-08-26T14:18:41.793Z,29.15
2022-08-26T14:20:49.431Z,29.36
2022-08-26T14:23:12.711Z,29.46
2022-08-26T14:25:13.936Z,29.52
2022-08-26T14:27:15.738Z,29.47
2022-08-26T14:29:17.916Z,29.50
2022-08-26T14:31:19.937Z,29.47
2022-08-26T14:33:25.452Z,29.51
2022-08-26T14:35:30.778Z,29.55
2022-08-26T14:37:33.003Z,29.59
2022-08-26T14:39:35.650Z,29.74
2022-08-26T14:41:54.023Z,29.79
2022-08-26T14:44:00.708Z,29.54
2022-08-26T14:46:02.509Z,29.38
2022-08-26T14:48:04.511Z,29.35
2022-08-26T14:50:06.724Z,29.33
2022-08-26T14:52:08.884Z,29.34
2022-08-26T14:54:12.468Z,29.25
2022-08-26T14:56:16.714Z,28.87
2022-08-26T14:58:18.709Z,28.83
2022-08-26T15:00:21.476Z,28.93
2022-08-26T15:02:32.704Z,28.93
2022-08-26T15:04:35.435Z,28.84
2022-08-26T15:06:38.006Z,28.44
2022-08-26T15:08:40.158Z,28.42
2022-08-26T15:10:42.100Z,28.50
2022-08-26T15:12:44.918Z,28.69
2022-08-26T15:14:46.940Z,28.86
2022-08-26T15:16:51.289Z,29.05
2022-08-26T15:18:53.170Z,29.25
2022-08-26T15:20:54.932Z,29.37
2022-08-26T15:22:58.209Z,29.48
2022-08-26T15:25:05.615Z,29.61
2022-08-26T15:27:08.629Z,29.71
2022-08-26T15:29:10.447Z,29.61
2022-08-26T15:31:12.473Z,29.27
2022-08-26T15:33:15.078Z,29.10
2022-08-26T15:35:17.430Z,29.12
2022-08-26T15:37:19.460Z,28.98
2022-08-26T15:39:21.433Z,28.76
2022-08-26T15:41:24.227Z,28.76
2022-08-26T15:43:29.012Z,28.78
2022-08-26T15:45:33.010Z,28.76
2022-08-26T15:47:48.385Z,28.63
2022-08-26T15:49:56.677Z,28.49
2022-08-26T15:52:05.177Z,28.48
2022-08-26T15:54:10.386Z,28.40
2022-08-26T15:56:13.451Z,28.11
2022-08-26T15:58:15.885Z,28.13
2022-08-26T16:00:18.277Z,28.14
2022-08-26T16:02:20.363Z,28.28
2022-08-26T16:04:22.483Z,28.24
2022-08-26T16:06:27.569Z,28.26
2022-08-26T16:08:30.127Z,28.12
2022-08-26T16:10:39.451Z,27.99
2022-08-26T16:12:41.278Z,28.03
2022-08-26T16:14:43.733Z,27.95
2022-08-26T16:16:45.916Z,27.83
2022-08-26T16:18:48.538Z,27.70
2022-08-26T16:21:06.546Z,27.69
2022-08-26T16:23:14.166Z,27.78
2022-08-26T16:25:15.914Z,27.86
2022-08-26T16:27:17.824Z,27.96
2022-08-26T16:29:19.617Z,27.86
2022-08-26T16:31:22.075Z,27.61
2022-08-26T16:33:29.555Z,27.68
2022-08-26T16:35:31.608Z,27.82
2022-08-26T16:37:35.501Z,27.90
2022-08-26T16:39:40.217Z,27.93
2022-08-26T16:41:46.978Z,27.89
2022-08-26T16:43:49.252Z,27.88
2022-08-26T16:45:51.279Z,27.88
2022-08-26T16:47:55.384Z,27.86
2022-08-26T16:49:57.412Z,27.81
2022-08-26T16:51:59.225Z,27.78
2022-08-26T16:54:02.105Z,27.74
2022-08-26T16:56:04.345Z,27.69
2022-08-26T16:58:06.138Z,27.63
2022-08-26T17:00:12.897Z,27.56
2022-08-26T17:02:14.860Z,27.51
2022-08-26T17:04:17.131Z,27.44
2022-08-26T17:06:18.905Z,27.40
2022-08-26T17:08:27.391Z,27.34
2022-08-26T17:10:31.055Z,27.26
2022-08-26T17:12:34.396Z,27.17
2022-08-26T17:14:42.617Z,27.12
2022-08-26T17:16:51.249Z,27.08
2022-08-26T17:18:53.053Z,27.04
2022-08-26T17:20:55.584Z,27.01
2022-08-26T17:22:57.363Z,26.99
2022-08-26T17:24:59.026Z,26.90
2022-08-26T17:27:01.073Z,26.84
2022-08-26T17:29:03.015Z,26.77
2022-08-26T17:31:06.312Z,26.69
2022-08-26T17:33:10.991Z,26.59
2022-08-26T17:35:14.591Z,26.54
2022-08-26T17:37:16.864Z,26.50
2022-08-26T17:39:18.670Z,26.46
2022-08-26T17:41:20.738Z,26.40
2022-08-26T17:43:22.517Z,26.35
2022-08-26T17:45:27.091Z,26.31
2022-08-26T17:47:28.782Z,26.27
2022-08-26T17:49:30.432Z,26.22
2022-08-26T17:51:32.665Z,26.18
2022-08-26T17:53:34.325Z,26.12
2022-08-26T17:55:36.027Z,26.08
2022-08-26T17:57:39.757Z,26.04
2022-08-26T17:59:42.862Z,25.99
2022-08-26T18:01:44.730Z,25.94
2022-08-26T18:03:46.507Z,25.90
2022-08-26T18:05:52.716Z,25.86
2022-08-26T18:07:54.363Z,25.82
2022-08-26T18:09:56.103Z,25.79
2022-08-26T18:11:58.764Z,25.74
2022-08-26T18:14:00.759Z,25.67
2022-08-26T18:16:04.644Z,25.63
2022-08-26T18:18:06.404Z,25.59
2022-08-26T18:20:11.430Z,25.57
2022-08-26T18:22:15.795Z,25.50
2022-08-26T18:24:17.923Z,25.47
2022-08-26T18:26:28.638Z,25.44
2022-08-26T18:28:30.296Z,25.43
2022-08-26T18:30:34.052Z,25.38
2022-08-26T18:32:36.017Z,25.35
2022-08-26T18:34:37.720Z,25.30
2022-08-26T18:36:40.195Z,25.30
2022-08-26T18:38:42.775Z,25.26
2022-08-26T18:40:45.450Z,25.23
2022-08-26T18:42:47.179Z,25.20
2022-08-26T18:44:55.894Z,25.16
2022-08-26T18:46:57.592Z,25.10
2022-08-26T18:48:59.333Z,25.08
2022-08-26T18:51:01.286Z,25.07
2022-08-26T18:53:03.045Z,25.06
2022-08-26T18:55:05.128Z,25.07
2022-08-26T18:57:07.143Z,25.03
2022-08-26T18:59:09.381Z,24.98
2022-08-26T19:01:12.203Z,24.98
2022-08-26T19:03:19.161Z,24.94
2022-08-26T19:05:21.110Z,24.93
2022-08-26T19:07:23.152Z,24.91
2022-08-26T19:09:26.488Z,24.88
2022-08-26T19:11:32.204Z,24.88
2022-08-26T19:13:35.565Z,24.86
2022-08-26T19:15:40.359Z,24.85
2022-08-26T19:17:42.024Z,24.86
2022-08-26T19:19:43.701Z,24.83
2022-08-26T19:21:48.139Z,24.81
2022-08-26T19:23:50.201Z,24.75
2022-08-26T19:25:53.177Z,24.55
2022-08-26T19:27:55.195Z,24.32
2022-08-26T19:29:57.709Z,24.20
2022-08-26T19:31:59.484Z,24.12
2022-08-26T19:34:01.704Z,24.03
2022-08-26T19:36:06.444Z,23.92
2022-08-26T19:38:09.342Z,23.85
2022-08-26T19:40:11.455Z,23.76
2022-08-26T19:42:13.642Z,23.69
2022-08-26T19:44:38.284Z,23.63
2022-08-26T19:46:40.473Z,23.62
2022-08-26T19:48:44.903Z,23.63
2022-08-26T19:50:46.900Z,23.55
2022-08-26T19:52:48.867Z,23.27
2022-08-26T19:54:50.915Z,23.09
2022-08-26T19:56:53.685Z,23.00
2022-08-26T19:58:56.591Z,23.02
2022-08-26T20:00:58.273Z,23.09
2022-08-26T20:03:00.123Z,23.22
2022-08-26T20:05:03.386Z,23.34
2022-08-26T20:07:05.676Z,23.41
2022-08-26T20:09:07.422Z,23.49
2022-08-26T20:11:12.358Z,23.58
2022-08-26T20:13:14.095Z,23.63
2022-08-26T20:15:16.878Z,23.66
2022-08-26T20:17:18.601Z,23.67
2022-08-26T20:19:39.231Z,23.60
2022-08-26T20:21:42.572Z,23.56
2022-08-26T20:23:44.574Z,23.59
2022-08-26T20:25:46.705Z,23.63
2022-08-26T20:27:48.571Z,23.66
2022-08-26T20:29:50.426Z,23.66
2022-08-26T20:31:54.646Z,23.67
2022-08-26T20:33:56.338Z,23.66
2022-08-26T20:35:58.271Z,23.66
2022-08-26T20:38:00.080Z,23.66
2022-08-26T20:40:02.050Z,23.64
2022-08-26T20:42:04.573Z,23.63
2022-08-26T20:44:07.274Z,23.59
2022-08-26T20:46:12.783Z,23.30
2022-08-26T20:48:20.608Z,22.76
2022-08-26T20:50:22.284Z,22.59
2022-08-26T20:52:25.173Z,22.65
2022-08-26T20:54:28.572Z,22.74
2022-08-26T20:56:30.345Z,22.85
2022-08-26T20:58:32.182Z,22.98
2022-08-26T21:00:33.915Z,23.07
2022-08-26T21:02:35.654Z,23.14
2022-08-26T21:04:37.478Z,23.16
2022-08-26T21:06:39.412Z,23.19
2022-08-26T21:08:44.386Z,23.09
2022-08-26T21:10:46.873Z,23.03
2022-08-26T21:12:49.132Z,22.97
2022-08-26T21:14:50.825Z,22.80
2022-08-26T21:16:52.551Z,22.59
2022-08-26T21:18:54.353Z,22.56
2022-08-26T21:20:56.095Z,22.52
2022-08-26T21:22:57.969Z,22.36
2022-08-26T21:24:59.739Z,22.12
2022-08-26T21:27:01.530Z,21.96
2022-08-26T21:29:04.334Z,21.78
2022-08-26T21:31:08.183Z,21.67
2022-08-26T21:33:09.954Z,21.63
2022-08-26T21:35:11.730Z,21.64
2022-08-26T21:37:16.902Z,21.64
2022-08-26T21:39:18.942Z,21.72
2022-08-26T21:41:25.231Z,21.82
2022-08-26T21:43:33.677Z,21.94
2022-08-26T21:45:41.243Z,22.02
2022-08-26T21:47:43.509Z,22.11
2022-08-26T21:49:45.216Z,22.20
2022-08-26T21:51:48.293Z,22.29
2022-08-26T21:53:50.787Z,22.36
2022-08-26T21:55:52.489Z,22.39
2022-08-26T21:57:54.349Z,22.46
2022-08-26T21:59:56.682Z,22.50
2022-08-26T22:01:59.059Z,22.51
2022-08-26T22:04:03.941Z,22.51
2022-08-26T22:06:05.915Z,22.49
2022-08-26T22:08:07.760Z,22.40
2022-08-26T22:10:09.676Z,22.29
2022-08-26T22:12:11.867Z,22.08
2022-08-26T22:14:15.254Z,22.05
2022-08-26T22:16:18.176Z,22.08
2022-08-26T22:18:21.578Z,22.14
2022-08-26T22:20:23.888Z,22.20
2022-08-26T22:22:26.178Z,22.14
2022-08-26T22:24:27.999Z,22.12
2022-08-26T22:26:31.949Z,22.12
2022-08-26T22:28:33.882Z,22.13
2022-08-26T22:30:35.947Z,22.17
2022-08-26T22:32:39.685Z,22.18
2022-08-26T22:34:42.026Z,22.18
2022-08-26T22:36:46.826Z,22.19
2022-08-26T22:38:49.570Z,22.23
2022-08-26T22:40:57.450Z,22.24
2022-08-26T22:43:00.182Z,22.27
2022-08-26T22:45:03.121Z,22.28
2022-08-26T22:47:07.491Z,22.28
2022-08-26T22:49:10.688Z,22.26
2022-08-26T22:51:12.953Z,22.26
2022-08-26T22:53:16.300Z,22.27
2022-08-26T22:55:18.122Z,22.25
2022-08-26T22:57:20.726Z,22.22
2022-08-26T22:59:22.552Z,22.20
2022-08-26T23:01:24.304Z,22.21
2022-08-26T23:03:26.793Z,22.19
2022-08-26T23:05:28.822Z,22.22
2022-08-26T23:07:30.598Z,22.19
2022-08-26T23:09:32.391Z,22.15
2022-08-26T23:11:34.487Z,22.16
2022-08-26T23:13:36.543Z,22.09
2022-08-26T23:15:38.901Z,21.92
2022-08-26T23:17:40.798Z,21.79
2022-08-26T23:19:42.412Z,21.71
2022-08-26T23:21:44.559Z,21.65
2022-08-26T23:23:46.315Z,21.63
2022-08-26T23:25:48.032Z,21.60
2022-08-26T23:27:50.262Z,21.47
2022-08-26T23:29:51.968Z,21.41
2022-08-26T23:31:53.719Z,21.36
2022-08-26T23:34:13.955Z,21.33
2022-08-26T23:36:17.732Z,21.26
2022-08-26T23:38:19.895Z,21.23
2022-08-26T23:40:28.343Z,21.00
2022-08-26T23:42:30.661Z,20.87
2022-08-26T23:44:32.729Z,20.86
2022-08-26T23:46:35.407Z,20.85
2022-08-26T23:48:37.659Z,20.84
2022-08-26T23:50:58.105Z,20.85
2022-08-26T23:53:09.048Z,20.90
2022-08-26T23:55:11.919Z,20.86
2022-08-26T23:57:13.600Z,20.85
2022-08-26T23:59:15.649Z,20.86
